CheckWX is a tool to help pilots better visualize weather data.  It is not intended as a substitute for an official pre-flight weather briefing.

18:38:36 UTC

WATT TAF
El Tari Airport
Kupang-Timor Island, Indonesia
TAF WATT 261700Z 2618/2718 16002KT 8000 FEW018 BECMG 2702/2704 30012KT PROB40 TEMPO 2706/2710 5000 -RA FEW015CB SCT017 BECMG 2712/2714 19002KT SCT018

Mar-26@
18:00 UTC

Mar-26 @ 18:00 UTC

Mar-27@
02:00 UTC

Mar-27 @ 02:00 UTC

TAF WATT 261700Z 2618/2718 16002KT 8000 FEW018
Wind
  • 160° at 2 KTS
Cloud Levels
  • Few at 1,800' AGL

Mar-27@
02:00 UTC

Mar-27 @ 02:00 UTC

Mar-27@
12:00 UTC

Mar-27 @ 12:00 UTC

BECMG 2702/2704 30012KT

Becoming

Becoming Conditions expected by Wed, Mar 27, 2019 @ 04:00 UTC

Wind
  • 300° at 12 KTS
Cloud Levels
  • Few at 1,800' AGL

Mar-27@
06:00 UTC

Mar-27 @ 06:00 UTC

Mar-27@
10:00 UTC

Mar-27 @ 10:00 UTC

PROB40 TEMPO 2706/2710 5000 -RA FEW015CB SCT017

Temporary - 40% Likelihood

Temporary - 40% Likelihood during this time.

Conditions
Light Rain
Cloud Levels
  • Few at 1,500' AGL
  • Scattered at 1,700' AGL

Mar-27@
12:00 UTC

Mar-27 @ 12:00 UTC

Mar-27@
18:00 UTC

Mar-27 @ 18:00 UTC

BECMG 2712/2714 19002KT SCT018

Becoming

Becoming Conditions expected by Wed, Mar 27, 2019 @ 14:00 UTC

Wind
  • 190° at 2 KTS
Cloud Levels
  • Scattered at 1,800' AGL